Time;durP1;ratioP1;P1;durP2;ratioP2;P2;SDS_P1;SDS_P2;PMS_P1;PMS_P2;Temp;Humidity;BMP_temperature;BMP_pressure;BME280_temperature;BME280_humidity;BME280_pressure;Samples;Min_cycle;Max_cycle;Signal;HPM_P1;HPM_P2
2023/07/30 00:02:19;;;;;;;3.55;2.33;;;;;;;24.52;44.75;97948.25;5113446;28;20281;-57
2023/07/30 00:04:46;;;;;;;2.05;1.95;;;;;;;24.26;44.77;97913.84;5113686;28;20171;-57
2023/07/30 00:07:11;;;;;;;2.10;1.92;;;;;;;24.25;44.91;97920.16;5113545;28;20215;-57
2023/07/30 00:09:38;;;;;;;2.72;2.50;;;;;;;24.28;44.80;97919.75;5113477;28;20558;-57
2023/07/30 00:12:05;;;;;;;4.55;2.40;;;;;;;24.50;44.71;97950.25;5113357;28;20179;-57
2023/07/30 00:14:30;;;;;;;4.22;2.20;;;;;;;24.53;44.37;97955.16;5113646;27;20175;-57
2023/07/30 00:16:55;;;;;;;2.95;2.67;;;;;;;24.00;45.45;97913.00;5113309;28;20175;-57
2023/07/30 00:19:21;;;;;;;2.53;2.17;;;;;;;24.19;45.83;97943.94;5113075;28;20546;-57
2023/07/30 00:21:46;;;;;;;2.50;2.30;;;;;;;24.13;45.29;97920.94;5113307;28;20183;-57
2023/07/30 00:24:15;;;;;;;4.43;2.40;;;;;;;24.42;45.19;97958.41;5113246;28;20274;-57
2023/07/30 00:26:40;;;;;;;2.63;2.35;;;;;;;24.26;45.27;97932.34;5112914;28;20205;-57
2023/07/30 00:29:06;;;;;;;3.42;2.70;;;;;;;24.32;45.32;97947.41;5113164;28;20202;-57
2023/07/30 00:31:31;;;;;;;3.95;2.38;;;;;;;24.19;45.49;97928.88;5112995;28;20251;-57
2023/07/30 00:33:56;;;;;;;2.60;2.20;;;;;;;24.01;45.43;97916.47;5112978;28;20164;-57
2023/07/30 00:36:22;;;;;;;2.53;2.33;;;;;;;23.92;45.59;97913.19;5112737;28;20605;-56
2023/07/30 00:38:47;;;;;;;4.13;2.53;;;;;;;23.77;46.05;97942.41;5112368;28;20167;-57
2023/07/30 00:41:13;;;;;;;2.60;2.40;;;;;;;23.75;45.80;97912.69;5112659;28;20182;-56
2023/07/30 00:43:38;;;;;;;2.70;2.50;;;;;;;23.90;46.09;97933.72;5112930;28;20601;-57
2023/07/30 00:46:03;;;;;;;3.10;2.08;;;;;;;23.92;46.00;97929.06;5112893;28;20175;-57
2023/07/30 00:48:30;;;;;;;2.33;2.20;;;;;;;23.84;46.37;97932.66;5112770;28;20202;-57
2023/07/30 00:50:55;;;;;;;2.63;2.15;;;;;;;23.85;46.41;97929.00;5112497;28;20199;-56
2023/07/30 00:53:23;;;;;;;2.50;2.30;;;;;;;23.77;46.76;97924.94;5112498;28;20220;-57
2023/07/30 00:55:48;;;;;;;2.50;2.30;;;;;;;23.71;46.73;97931.00;5112635;28;20206;-57
2023/07/30 00:58:15;;;;;;;2.60;2.40;;;;;;;23.41;47.40;97900.59;5112376;28;20203;-57
2023/07/30 01:00:41;;;;;;;5.43;2.72;;;;;;;23.50;47.56;97942.53;5112613;28;20183;-57
2023/07/30 01:03:06;;;;;;;5.07;2.38;;;;;;;23.20;47.58;97898.09;5112273;28;20664;-57
2023/07/30 01:05:32;;;;;;;2.58;2.40;;;;;;;23.23;47.39;97905.59;5112313;28;20530;-57
2023/07/30 01:07:58;;;;;;;2.45;2.25;;;;;;;23.37;47.65;97944.28;5111632;28;20178;-57
2023/07/30 01:10:24;;;;;;;2.88;2.63;;;;;;;23.39;48.04;97942.25;5112286;28;20206;-57
2023/07/30 01:12:51;;;;;;;2.58;2.38;;;;;;;23.21;47.96;97920.84;5112342;28;20553;-57
2023/07/30 01:15:17;;;;;;;3.40;2.38;;;;;;;23.05;48.27;97913.22;5112347;27;20171;-57
2023/07/30 01:17:43;;;;;;;2.40;2.20;;;;;;;23.06;48.43;97920.94;5112282;28;20171;-56
2023/07/30 01:20:10;;;;;;;2.40;2.20;;;;;;;23.08;48.27;97918.91;5112287;28;20637;-56
2023/07/30 01:22:35;;;;;;;3.97;2.67;;;;;;;23.14;48.44;97930.53;5111969;28;20178;-57
2023/07/30 01:25:01;;;;;;;2.42;2.17;;;;;;;22.91;48.46;97914.16;5112165;28;20201;-56
2023/07/30 01:27:29;;;;;;;3.20;2.20;;;;;;;23.09;48.57;97943.47;5112505;28;20284;-56
2023/07/30 01:30:06;;;;;;;2.78;2.58;;;;;;;23.14;48.75;97943.72;5112069;28;20175;-57
2023/07/30 01:32:32;;;;;;;2.60;2.40;;;;;;;22.87;48.87;97911.09;5109574;28;20187;-57
2023/07/30 01:35:00;;;;;;;2.60;2.40;;;;;;;22.96;49.20;97940.78;5109489;28;20198;-56
2023/07/30 01:37:26;;;;;;;2.60;2.40;;;;;;;22.74;49.90;97950.59;5109571;28;20215;-57
2023/07/30 01:39:52;;;;;;;2.45;2.35;;;;;;;22.66;49.69;97918.25;5109592;28;20616;-56
2023/07/30 01:42:18;;;;;;;2.72;2.45;;;;;;;22.74;49.65;97931.28;5109418;28;20187;-57
2023/07/30 01:44:43;;;;;;;2.53;2.30;;;;;;;22.58;50.13;97935.03;5109416;28;20341;-56
2023/07/30 01:47:09;;;;;;;2.95;2.63;;;;;;;22.47;50.26;97921.53;5109362;28;20217;-56
2023/07/30 01:49:34;;;;;;;3.55;2.30;;;;;;;22.48;50.45;97933.72;5109298;28;20190;-57
2023/07/30 01:52:00;;;;;;;2.30;2.20;;;;;;;22.58;50.11;97942.94;5109328;28;20214;-56
2023/07/30 01:54:25;;;;;;;2.42;2.30;;;;;;;22.49;50.42;97930.91;5109391;28;20203;-57
2023/07/30 01:56:51;;;;;;;2.55;2.03;;;;;;;22.50;50.49;97934.34;5109385;28;20179;-56
2023/07/30 01:59:17;;;;;;;2.70;2.50;;;;;;;22.27;50.64;97908.16;5109261;28;20198;-56
2023/07/30 02:01:43;;;;;;;2.53;2.33;;;;;;;22.50;50.65;97944.91;5109193;28;20724;-56
2023/07/30 02:04:08;;;;;;;2.45;2.25;;;;;;;22.36;50.43;97919.38;5110746;28;20183;-57
2023/07/30 02:06:34;;;;;;;5.22;2.42;;;;;;;22.35;50.27;97909.84;5111662;28;20206;-56
2023/07/30 02:08:59;;;;;;;4.78;2.45;;;;;;;22.40;50.35;97931.19;5111648;28;20588;-57
2023/07/30 02:11:24;;;;;;;2.70;2.50;;;;;;;22.71;49.94;97955.41;5111569;28;20198;-57
2023/07/30 02:13:50;;;;;;;2.70;2.50;;;;;;;22.78;49.71;97943.91;5111725;28;20291;-57
2023/07/30 02:16:15;;;;;;;2.50;2.30;;;;;;;22.87;49.79;97953.31;5111663;28;20622;-57
2023/07/30 02:18:41;;;;;;;2.88;2.10;;;;;;;22.91;49.87;97956.38;5112026;28;20182;-56
2023/07/30 02:21:06;;;;;;;2.30;2.15;;;;;;;22.81;49.92;97937.41;5115373;28;20172;-56
2023/07/30 02:23:32;;;;;;;2.97;2.60;;;;;;;22.86;49.19;97935.84;5115650;28;20626;-57
2023/07/30 02:25:57;;;;;;;3.33;2.50;;;;;;;22.90;49.15;97957.38;5115558;28;20591;-57
2023/07/30 02:28:22;;;;;;;2.78;2.58;;;;;;;22.63;49.71;97930.00;5115602;28;20284;-56
2023/07/30 02:30:48;;;;;;;3.22;2.05;;;;;;;22.76;49.47;97940.66;5115161;28;20199;-57
2023/07/30 02:33:13;;;;;;;2.97;2.75;;;;;;;22.83;49.46;97952.06;5115747;28;20179;-56
2023/07/30 02:35:38;;;;;;;4.45;2.50;;;;;;;22.86;49.76;97950.84;5115393;27;20167;-56
2023/07/30 02:38:04;;;;;;;2.30;2.17;;;;;;;22.87;49.48;97952.47;5115021;28;20703;-56
2023/07/30 02:40:30;;;;;;;2.63;2.42;;;;;;;22.88;49.65;97952.28;5115263;28;20207;-57
2023/07/30 02:42:56;;;;;;;4.32;2.40;;;;;;;22.56;49.88;97928.31;5115155;28;20182;-56
2023/07/30 02:45:21;;;;;;;2.75;2.55;;;;;;;22.72;50.04;97957.84;5115207;28;20523;-56
2023/07/30 02:47:46;;;;;;;2.92;2.30;;;;;;;22.62;50.06;97948.66;5115133;28;20176;-56
2023/07/30 02:50:12;;;;;;;4.43;2.60;;;;;;;22.57;50.15;97953.69;5115007;28;20230;-56
2023/07/30 02:52:37;;;;;;;2.35;2.15;;;;;;;22.64;50.17;97967.72;5115124;28;20176;-56
2023/07/30 02:55:03;;;;;;;3.70;2.67;;;;;;;22.57;50.39;97957.16;5114788;28;20609;-56
2023/07/30 02:57:28;;;;;;;2.78;2.55;;;;;;;22.40;50.22;97933.84;5115037;28;20171;-56
2023/07/30 02:59:53;;;;;;;2.42;2.22;;;;;;;22.38;50.41;97935.84;5114963;28;20175;-56
2023/07/30 03:02:19;;;;;;;2.60;2.40;;;;;;;22.39;50.54;97937.47;5115067;28;20175;-56
2023/07/30 03:04:44;;;;;;;2.45;2.25;;;;;;;22.38;50.63;97956.94;5114745;28;20621;-56
2023/07/30 03:07:10;;;;;;;4.05;2.40;;;;;;;22.44;50.46;97951.75;5114752;28;20191;-56
2023/07/30 03:09:35;;;;;;;5.35;2.78;;;;;;;22.37;50.51;97944.78;5114696;28;20546;-55
2023/07/30 03:12:02;;;;;;;2.28;2.17;;;;;;;22.55;50.24;97971.53;5114254;28;20660;-56
2023/07/30 03:14:27;;;;;;;2.65;2.45;;;;;;;22.33;50.26;97951.41;5114620;28;20236;-56
2023/07/30 03:16:52;;;;;;;2.70;2.50;;;;;;;22.40;49.85;97976.84;5114598;28;20576;-56
2023/07/30 03:19:18;;;;;;;2.72;2.53;;;;;;;22.50;50.59;97992.38;5111805;28;20317;-56
2023/07/30 03:21:43;;;;;;;2.40;2.20;;;;;;;22.52;50.54;97990.34;5112117;28;20673;-56
2023/07/30 03:24:09;;;;;;;2.38;2.28;;;;;;;22.45;50.75;97987.69;5111845;28;20179;-56
2023/07/30 03:26:34;;;;;;;2.50;2.30;;;;;;;22.33;51.71;97973.31;5111830;28;20179;-56
2023/07/30 03:28:59;;;;;;;2.63;2.42;;;;;;;22.38;51.29;97988.59;5111780;28;20373;-56
2023/07/30 03:31:25;;;;;;;4.55;2.42;;;;;;;22.50;51.41;98003.72;5111583;28;20804;-56
2023/07/30 03:33:50;;;;;;;4.85;2.35;;;;;;;22.38;51.36;97988.59;5111763;28;20175;-56
2023/07/30 03:36:16;;;;;;;3.13;2.60;;;;;;;22.34;51.74;97987.31;5111692;28;20217;-56
2023/07/30 03:38:42;;;;;;;2.80;2.58;;;;;;;22.35;52.20;97983.66;5111746;28;20204;-56
2023/07/30 03:41:08;;;;;;;2.67;2.47;;;;;;;22.37;51.00;97976.41;5111518;28;20704;-56
2023/07/30 03:43:34;;;;;;;2.20;2.10;;;;;;;22.43;51.11;97962.47;5111579;28;20183;-56
2023/07/30 03:45:59;;;;;;;2.35;2.20;;;;;;;22.63;50.97;97982.75;5090907;28;20646;-56
2023/07/30 03:48:25;;;;;;;2.47;2.17;;;;;;;22.54;50.97;97959.31;5091110;28;20271;-56
2023/07/30 03:50:52;;;;;;;3.08;2.60;;;;;;;22.72;51.22;97992.16;5090873;28;20208;-56
2023/07/30 03:53:18;;;;;;;2.83;2.63;;;;;;;22.43;51.82;97979.13;5090914;28;20176;-56
2023/07/30 03:55:43;;;;;;;2.40;2.30;;;;;;;22.48;51.07;97973.25;5092633;28;20195;-56
2023/07/30 03:58:08;;;;;;;4.22;2.72;;;;;;;22.68;50.88;97982.97;5111261;28;20657;-56
2023/07/30 04:00:34;;;;;;;3.92;2.60;;;;;;;22.74;51.28;97989.31;5111214;28;20198;-56
2023/07/30 04:02:59;;;;;;;3.90;2.40;;;;;;;22.63;50.48;97960.81;5111174;28;20171;-56
2023/07/30 04:05:25;;;;;;;2.60;2.38;;;;;;;22.82;50.08;97981.25;5111170;28;20248;-57
2023/07/30 04:07:50;;;;;;;2.75;2.55;;;;;;;22.88;50.03;97980.50;5111075;28;20194;-56
2023/07/30 04:10:16;;;;;;;3.63;2.65;;;;;;;23.03;49.51;97995.25;5111082;28;20207;-56
2023/07/30 04:12:41;;;;;;;2.63;2.42;;;;;;;23.01;49.54;97988.53;5111057;28;20179;-56
2023/07/30 04:15:07;;;;;;;2.45;2.25;;;;;;;22.93;49.62;97984.19;5110958;28;20686;-56
2023/07/30 04:17:32;;;;;;;3.15;2.72;;;;;;;23.04;49.56;97996.88;5112589;28;20183;-56
2023/07/30 04:19:57;;;;;;;3.72;2.28;;;;;;;23.00;49.36;97968.38;5113424;28;20173;-56
2023/07/30 04:22:23;;;;;;;2.40;2.30;;;;;;;23.10;49.44;97997.91;5113576;28;20171;-56
2023/07/30 04:24:49;;;;;;;2.78;2.58;;;;;;;23.26;49.55;98016.91;5113515;28;20327;-56
2023/07/30 04:27:14;;;;;;;2.55;2.30;;;;;;;23.18;49.73;97985.41;5113031;28;20214;-56
2023/07/30 04:29:40;;;;;;;3.00;2.78;;;;;;;23.27;49.55;97986.06;5113504;28;20647;-56
2023/07/30 04:32:06;;;;;;;4.35;2.97;;;;;;;23.49;49.14;98000.81;5113085;28;20190;-56
2023/07/30 04:34:31;;;;;;;2.70;2.38;;;;;;;23.61;49.38;98026.44;5112784;28;20171;-56
2023/07/30 04:36:56;;;;;;;4.38;3.03;;;;;;;23.59;48.96;98017.13;5112852;28;20201;-56
2023/07/30 04:39:22;;;;;;;5.85;2.47;;;;;;;23.69;48.70;98019.19;5112862;28;20557;-56
2023/07/30 04:41:47;;;;;;;3.05;2.85;;;;;;;23.83;48.88;98025.34;5112325;28;20271;-56
2023/07/30 04:44:12;;;;;;;2.60;2.40;;;;;;;23.83;48.24;98009.47;5112531;28;20269;-56
2023/07/30 04:46:38;;;;;;;2.85;2.45;;;;;;;24.02;47.84;98024.66;5112884;28;20171;-56
2023/07/30 04:49:04;;;;;;;2.58;2.47;;;;;;;23.98;47.48;98014.66;5112825;27;20174;-56
2023/07/30 04:51:29;;;;;;;3.15;2.83;;;;;;;24.05;47.80;98029.53;5112581;28;20249;-56
2023/07/30 04:53:55;;;;;;;2.92;2.72;;;;;;;23.91;48.78;98035.78;5112612;28;20179;-56
2023/07/30 04:56:20;;;;;;;2.83;2.63;;;;;;;23.85;49.29;98010.91;5112648;28;20169;-56
2023/07/30 04:58:45;;;;;;;3.33;2.63;;;;;;;24.07;48.52;98031.97;5112573;28;20221;-56
2023/07/30 05:01:11;;;;;;;2.80;2.60;;;;;;;23.91;47.73;98003.25;5112604;28;20175;-56
2023/07/30 05:03:36;;;;;;;5.68;2.70;;;;;;;24.14;47.83;98034.44;5112488;28;20577;-56
2023/07/30 05:06:02;;;;;;;3.45;2.78;;;;;;;24.07;48.23;98018.75;5112317;28;21010;-56
2023/07/30 05:08:28;;;;;;;3.30;2.70;;;;;;;24.21;47.60;98029.19;5112389;28;20171;-56
2023/07/30 05:10:53;;;;;;;3.20;2.90;;;;;;;24.40;47.46;98028.41;5112352;28;20194;-56
2023/07/30 05:13:19;;;;;;;4.05;2.50;;;;;;;24.46;47.16;98041.66;5112380;28;20580;-56
2023/07/30 05:15:44;;;;;;;2.60;2.40;;;;;;;24.43;46.88;98023.50;5112361;28;20271;-56
2023/07/30 05:18:10;;;;;;;2.90;2.70;;;;;;;24.53;46.97;98034.53;5112254;28;20180;-56
2023/07/30 05:20:35;;;;;;;5.68;3.40;;;;;;;24.48;47.20;98025.53;5112259;28;20630;-57
2023/07/30 05:23:02;;;;;;;4.20;2.90;;;;;;;24.65;47.10;98032.13;5112207;28;20214;-57
2023/07/30 05:25:27;;;;;;;2.92;2.67;;;;;;;24.71;46.50;98037.44;5112076;28;20177;-55
2023/07/30 05:27:53;;;;;;;2.90;2.70;;;;;;;24.68;46.14;98024.59;5111935;28;20179;-56
2023/07/30 05:30:18;;;;;;;2.90;2.40;;;;;;;24.88;46.14;98030.72;5111586;28;20199;-56
2023/07/30 05:32:44;;;;;;;2.50;2.33;;;;;;;24.84;45.58;98018.91;5112081;28;20265;-56
2023/07/30 05:35:09;;;;;;;3.50;2.67;;;;;;;24.91;45.66;98014.41;5111928;28;20211;-56
2023/07/30 05:37:34;;;;;;;2.60;2.50;;;;;;;25.01;45.13;98016.66;5112015;28;20206;-55
2023/07/30 05:40:00;;;;;;;2.75;2.20;;;;;;;24.98;45.37;98015.25;5111975;28;20239;-55
2023/07/30 05:42:25;;;;;;;2.40;2.20;;;;;;;24.95;45.37;98015.63;5112044;28;20175;-56
2023/07/30 05:44:51;;;;;;;3.08;2.85;;;;;;;25.05;45.50;98015.22;5111934;28;20167;-55
2023/07/30 05:47:16;;;;;;;2.83;2.58;;;;;;;25.17;45.22;98026.81;5111644;28;20179;-56
2023/07/30 05:49:41;;;;;;;2.95;2.33;;;;;;;25.48;44.61;98051.66;5111883;28;20312;-57
2023/07/30 05:52:07;;;;;;;2.30;2.20;;;;;;;25.47;44.39;98030.66;5111600;28;20199;-57
2023/07/30 05:54:32;;;;;;;3.25;2.90;;;;;;;25.54;44.64;98021.66;5113660;28;20689;-57
2023/07/30 05:56:57;;;;;;;6.25;2.83;;;;;;;25.69;44.35;98018.75;5115756;28;20177;-57
2023/07/30 05:59:23;;;;;;;3.67;2.40;;;;;;;25.82;43.77;98030.16;5116337;28;20202;-57
2023/07/30 06:01:48;;;;;;;4.28;2.75;;;;;;;25.75;43.68;98028.53;5115983;27;20286;-57
2023/07/30 06:04:14;;;;;;;11.35;2.97;;;;;;;25.92;44.42;98037.69;5115806;28;20704;-55
2023/07/30 06:06:39;;;;;;;7.85;3.47;;;;;;;26.10;44.49;98049.22;5115864;28;20210;-55
2023/07/30 06:09:04;;;;;;;6.05;3.28;;;;;;;26.24;44.04;98045.47;5115550;28;20177;-56
2023/07/30 06:11:30;;;;;;;4.63;3.40;;;;;;;26.24;44.43;98026.91;5115266;28;20210;-55
2023/07/30 06:13:55;;;;;;;5.35;3.63;;;;;;;26.33;44.25;98032.78;5115701;28;20178;-56
2023/07/30 06:16:21;;;;;;;6.25;3.50;;;;;;;26.53;44.41;98036.13;5115682;27;20179;-57
2023/07/30 06:18:47;;;;;;;4.75;3.60;;;;;;;26.68;44.14;98048.09;5115711;28;20204;-57
2023/07/30 06:21:12;;;;;;;11.90;3.63;;;;;;;26.79;44.07;98036.78;5115483;28;20642;-57
2023/07/30 06:23:38;;;;;;;4.88;3.70;;;;;;;26.76;43.60;98015.97;5115518;28;20181;-57
2023/07/30 06:26:03;;;;;;;9.13;3.28;;;;;;;26.86;43.71;98028.75;5115266;28;20663;-57
2023/07/30 06:28:29;;;;;;;6.53;3.53;;;;;;;26.98;43.24;98033.16;5133440;27;20182;-56
2023/07/30 06:30:54;;;;;;;9.32;3.72;;;;;;;26.97;43.01;98015.59;5133337;27;20309;-55
2023/07/30 06:33:19;;;;;;;6.60;3.60;;;;;;;27.00;43.15;98001.88;5133240;27;20186;-56
2023/07/30 06:35:45;;;;;;;7.07;3.80;;;;;;;27.09;42.83;98005.88;5133415;27;20174;-57
2023/07/30 06:38:10;;;;;;;6.10;3.50;;;;;;;27.29;42.54;98019.00;5133660;27;20229;-57
2023/07/30 06:40:35;;;;;;;8.30;3.58;;;;;;;27.32;42.47;98016.72;5133339;27;20178;-57
2023/07/30 06:43:01;;;;;;;7.88;3.35;;;;;;;27.53;42.75;98039.41;5133410;27;20617;-57
2023/07/30 06:45:26;;;;;;;7.05;3.78;;;;;;;27.68;42.57;98035.34;5133143;27;20209;-57
2023/07/30 06:47:52;;;;;;;4.53;3.30;;;;;;;27.68;42.18;98030.03;5133027;27;20269;-56
2023/07/30 06:50:17;;;;;;;6.20;3.42;;;;;;;27.72;42.17;98025.91;5133068;27;20266;-56
2023/07/30 06:52:43;;;;;;;5.97;3.38;;;;;;;27.76;41.96;98015.63;5132980;27;20179;-56
2023/07/30 06:55:08;;;;;;;6.50;3.30;;;;;;;27.90;41.89;98027.75;5132867;27;20189;-56
2023/07/30 06:57:34;;;;;;;3.58;3.15;;;;;;;27.96;42.14;98033.00;5132953;27;20182;-56
2023/07/30 07:00:00;;;;;;;6.45;3.10;;;;;;;28.03;42.46;98033.72;5119825;27;20195;-56
2023/07/30 07:02:26;;;;;;;4.53;2.95;;;;;;;28.02;42.56;98010.81;5114620;28;20175;-56
2023/07/30 07:04:51;;;;;;;3.70;3.35;;;;;;;27.97;42.32;97997.38;5111145;28;20579;-56
2023/07/30 07:07:16;;;;;;;5.60;4.65;;;;;;;28.09;41.85;98011.53;5111882;28;20292;-56
2023/07/30 07:09:42;;;;;;;7.45;3.20;;;;;;;28.11;41.97;98017.44;5112219;28;20183;-56
2023/07/30 07:12:07;;;;;;;8.45;3.60;;;;;;;28.16;42.15;98009.59;5112068;28;20201;-56
2023/07/30 07:14:33;;;;;;;8.15;3.38;;;;;;;28.12;41.70;97986.34;5112118;28;20634;-56
2023/07/30 07:16:58;;;;;;;5.88;3.30;;;;;;;28.31;41.88;98006.53;5071239;28;20267;-56
2023/07/30 07:19:24;;;;;;;4.13;3.50;;;;;;;28.06;41.66;97984.56;5071318;28;20654;-56
2023/07/30 07:21:49;;;;;;;4.85;3.60;;;;;;;28.32;41.92;98016.94;5071297;28;20635;-56
2023/07/30 07:24:16;;;;;;;4.68;2.65;;;;;;;28.32;41.60;97997.50;5071307;28;20266;-56
2023/07/30 07:26:42;;;;;;;8.50;3.40;;;;;;;28.51;41.13;98010.56;5071331;28;20200;-56
2023/07/30 07:29:07;;;;;;;7.63;3.30;;;;;;;28.43;40.98;97978.94;5071280;28;20191;-56
2023/07/30 07:31:32;;;;;;;4.80;3.40;;;;;;;28.64;40.76;98001.56;5070974;28;20216;-56
2023/07/30 07:33:58;;;;;;;4.68;3.30;;;;;;;28.59;40.14;97983.63;5071229;28;20181;-56
2023/07/30 07:36:23;;;;;;;3.47;3.08;;;;;;;28.63;39.83;97982.09;5085985;28;20190;-56
2023/07/30 07:38:49;;;;;;;4.97;3.03;;;;;;;28.78;39.40;97998.47;5091370;28;20280;-56
2023/07/30 07:41:16;;;;;;;2.97;2.75;;;;;;;28.70;39.62;97980.16;5091331;28;20172;-56
2023/07/30 07:43:42;;;;;;;4.70;3.65;;;;;;;28.90;39.77;97996.63;5091046;28;20192;-56
2023/07/30 07:46:13;;;;;;;5.45;3.20;;;;;;;28.89;39.93;97991.50;5091009;28;20183;-56
2023/07/30 07:48:39;;;;;;;6.68;3.20;;;;;;;28.82;40.00;97988.16;5108667;28;20716;-56
2023/07/30 07:51:05;;;;;;;3.58;3.22;;;;;;;28.78;40.08;97987.81;5113669;28;20195;-56
2023/07/30 07:53:31;;;;;;;6.10;3.25;;;;;;;28.97;40.08;98017.84;5113512;28;20182;-56
2023/07/30 07:55:56;;;;;;;5.22;3.20;;;;;;;28.96;39.87;98003.72;5113343;27;20213;-56
2023/07/30 07:58:22;;;;;;;6.90;2.78;;;;;;;28.93;40.08;97984.69;5113637;27;20176;-56
2023/07/30 08:00:47;;;;;;;2.80;2.50;;;;;;;29.05;39.79;97998.84;5113637;28;20210;-56
2023/07/30 08:03:12;;;;;;;5.10;2.90;;;;;;;29.14;39.61;98014.25;5113477;28;20228;-56
2023/07/30 08:05:38;;;;;;;3.47;3.03;;;;;;;29.14;38.75;98008.94;5110590;28;20183;-56
2023/07/30 08:08:03;;;;;;;3.05;2.75;;;;;;;29.09;39.04;97990.16;5111153;28;20187;-56
2023/07/30 08:10:29;;;;;;;4.25;3.05;;;;;;;29.10;39.91;97997.09;5110874;28;20253;-56
2023/07/30 08:12:54;;;;;;;5.97;2.90;;;;;;;28.97;40.07;97968.03;5110755;28;20645;-56
2023/07/30 08:15:20;;;;;;;3.13;2.38;;;;;;;29.06;39.46;97969.31;5110802;28;20619;-56
2023/07/30 08:17:45;;;;;;;4.68;2.65;;;;;;;29.03;39.07;97964.44;5109738;28;20179;-56
2023/07/30 08:20:11;;;;;;;5.68;2.70;;;;;;;29.28;38.96;97997.00;5110839;28;20179;-56
2023/07/30 08:22:36;;;;;;;3.22;2.63;;;;;;;29.29;39.03;97993.28;5070055;28;20671;-56
2023/07/30 08:25:03;;;;;;;2.65;2.45;;;;;;;29.41;38.79;97994.09;5070060;28;20191;-56
2023/07/30 08:27:28;;;;;;;2.90;2.35;;;;;;;29.40;38.58;97979.13;5069994;28;20569;-56
2023/07/30 08:29:53;;;;;;;6.10;2.90;;;;;;;29.40;38.02;97959.66;5070202;28;20185;-56
2023/07/30 08:32:19;;;;;;;2.78;2.58;;;;;;;29.41;38.45;97959.44;5069946;28;20593;-56
2023/07/30 08:34:44;;;;;;;4.60;2.25;;;;;;;29.62;37.45;97990.03;5069853;28;20193;-56
2023/07/30 08:37:09;;;;;;;3.95;2.70;;;;;;;29.63;37.69;97976.47;5084705;28;20314;-56
2023/07/30 08:39:35;;;;;;;4.78;3.13;;;;;;;29.64;38.27;97950.59;5090058;28;20190;-56
2023/07/30 08:42:00;;;;;;;3.30;2.80;;;;;;;29.80;39.04;97966.63;5090048;28;20188;-56
2023/07/30 08:44:26;;;;;;;2.90;2.70;;;;;;;29.85;39.20;97982.75;5089947;28;20176;-56
2023/07/30 08:46:51;;;;;;;8.30;3.38;;;;;;;29.58;39.38;97938.19;5089992;28;20655;-56
2023/07/30 08:49:17;;;;;;;6.22;2.92;;;;;;;29.80;39.49;97965.84;5089944;28;20776;-57
2023/07/30 08:51:42;;;;;;;4.22;2.80;;;;;;;29.68;38.98;97931.19;5089911;28;20294;-56
2023/07/30 08:54:11;;;;;;;3.75;2.85;;;;;;;29.81;39.03;97946.13;5089736;28;20175;-56
2023/07/30 08:56:37;;;;;;;5.05;3.10;;;;;;;29.65;38.63;97952.19;5089732;28;20345;-56
2023/07/30 08:59:04;;;;;;;4.75;2.58;;;;;;;29.57;39.07;97934.69;5091803;28;20171;-56
2023/07/30 09:01:34;;;;;;;3.97;3.10;;;;;;;29.52;39.53;97923.94;5112775;28;20228;-57
2023/07/30 09:04:00;;;;;;;4.97;3.00;;;;;;;29.81;39.21;97940.78;5112425;28;20287;-57
2023/07/30 09:06:26;;;;;;;3.45;2.95;;;;;;;29.85;38.69;97939.28;5112315;27;20234;-57
2023/07/30 09:08:52;;;;;;;4.13;2.90;;;;;;;29.76;37.84;97914.81;5112354;28;20195;-57
2023/07/30 09:11:18;;;;;;;6.38;2.78;;;;;;;29.83;38.19;97936.84;5112311;28;20203;-57
2023/07/30 09:13:43;;;;;;;3.70;2.70;;;;;;;29.96;38.07;97933.88;5111916;28;20224;-57
2023/07/30 09:16:13;;;;;;;6.63;2.45;;;;;;;29.68;37.77;97903.72;5111924;28;20177;-57
2023/07/30 09:18:43;;;;;;;6.30;3.10;;;;;;;29.95;38.13;97937.59;5109867;28;20606;-56
2023/07/30 09:21:11;;;;;;;3.58;2.90;;;;;;;29.97;38.62;97903.47;5109667;28;20198;-57
2023/07/30 09:23:41;;;;;;;3.03;2.65;;;;;;;30.32;38.42;97927.34;5109860;28;20274;-57
2023/07/30 09:26:06;;;;;;;2.60;2.40;;;;;;;30.45;37.17;97917.16;5109840;28;20179;-56
2023/07/30 09:28:32;;;;;;;5.07;2.55;;;;;;;30.40;37.41;97885.03;5109437;28;20190;-57
2023/07/30 09:31:04;;;;;;;2.90;2.55;;;;;;;30.51;37.11;97889.47;5109447;28;20293;-57
2023/07/30 09:33:31;;;;;;;4.22;2.63;;;;;;;30.46;37.03;97878.72;5109346;28;20277;-56
2023/07/30 09:35:56;;;;;;;2.33;2.20;;;;;;;30.50;36.65;97897.72;5109418;28;20207;-56
2023/07/30 09:38:22;;;;;;;3.90;2.80;;;;;;;30.58;36.66;97889.28;5109479;28;20260;-56
2023/07/30 09:40:49;;;;;;;5.63;3.00;;;;;;;30.60;36.96;97876.53;5109455;28;20221;-57
2023/07/30 09:43:15;;;;;;;5.70;2.70;;;;;;;30.58;36.59;97874.09;5109284;28;20183;-57
2023/07/30 09:45:40;;;;;;;3.40;2.72;;;;;;;30.90;36.57;97899.16;5109262;28;20273;-57
2023/07/30 09:48:05;;;;;;;4.40;2.58;;;;;;;31.01;36.23;97892.91;5109411;28;20181;-57
2023/07/30 09:50:33;;;;;;;3.20;2.75;;;;;;;30.90;35.72;97855.59;5111209;28;20642;-57
2023/07/30 09:53:00;;;;;;;3.50;2.67;;;;;;;31.23;35.24;97888.41;5111480;28;20699;-57
2023/07/30 09:55:26;;;;;;;7.80;2.90;;;;;;;31.22;34.89;97854.72;5112106;28;20190;-57
2023/07/30 09:57:51;;;;;;;7.55;3.03;;;;;;;31.39;34.99;97866.16;5111744;28;20175;-55
2023/07/30 10:00:17;;;;;;;3.08;2.78;;;;;;;31.42;35.12;97848.81;5111739;28;20174;-56
2023/07/30 10:02:46;;;;;;;6.68;2.70;;;;;;;31.59;35.10;97878.97;5111621;28;20645;-57
2023/07/30 10:05:15;;;;;;;4.65;2.85;;;;;;;31.68;34.59;97864.06;5108997;28;20187;-57
2023/07/30 10:07:48;;;;;;;4.20;3.03;;;;;;;31.68;34.61;97832.78;5109013;28;20291;-57
2023/07/30 10:10:14;;;;;;;2.65;2.30;;;;;;;31.94;34.48;97858.72;5109053;28;20183;-57
2023/07/30 10:12:41;;;;;;;6.50;2.50;;;;;;;31.99;34.01;97845.41;5109176;28;20182;-57
2023/07/30 10:15:07;;;;;;;2.95;2.75;;;;;;;32.05;34.42;97830.19;5109081;28;20225;-57
2023/07/30 10:17:33;;;;;;;2.40;2.20;;;;;;;32.30;34.00;97858.00;5109230;28;20635;-57
2023/07/30 10:20:19;;;;;;;3.35;2.50;;;;;;;32.33;34.00;97849.47;5109078;28;20179;-57
2023/07/30 10:22:45;;;;;;;4.72;2.83;;;;;;;32.28;34.22;97827.16;5109045;28;20259;-57
2023/07/30 10:25:12;;;;;;;3.72;2.53;;;;;;;32.58;33.62;97852.31;5109099;28;20661;-57
2023/07/30 10:27:40;;;;;;;2.67;2.58;;;;;;;32.68;33.64;97847.03;5108978;28;20194;-57
2023/07/30 10:30:09;;;;;;;3.00;2.13;;;;;;;32.78;33.61;97830.22;5108895;28;20294;-57
2023/07/30 10:32:58;;;;;;;4.65;3.10;;;;;;;32.84;33.00;97827.31;5108869;28;20182;-57
2023/07/30 10:35:43;;;;;;;4.03;2.83;;;;;;;32.86;33.23;97825.19;5109171;28;20203;-57
2023/07/30 10:38:24;;;;;;;3.78;2.53;;;;;;;33.12;32.58;97843.00;5111420;28;20171;-57
2023/07/30 10:41:06;;;;;;;4.20;2.63;;;;;;;33.29;31.83;97838.25;5113273;28;20708;-57
2023/07/30 10:43:50;;;;;;;2.42;2.22;;;;;;;33.30;32.46;97826.47;5115024;28;20168;-57
2023/07/30 10:46:18;;;;;;;2.75;2.55;;;;;;;33.51;31.84;97830.81;5115137;28;20192;-57
2023/07/30 10:48:45;;;;;;;2.53;2.25;;;;;;;33.63;31.51;97831.38;5115119;28;20163;-57
2023/07/30 10:51:23;;;;;;;2.55;2.35;;;;;;;33.98;31.63;97834.16;5114797;28;20214;-57
2023/07/30 10:53:50;;;;;;;4.40;2.28;;;;;;;34.11;30.02;97800.59;5114672;28;20557;-56
2023/07/30 10:56:17;;;;;;;4.68;2.30;;;;;;;34.34;29.92;97802.75;5114952;28;20281;-56
2023/07/30 10:58:48;;;;;;;3.28;2.60;;;;;;;34.68;29.95;97831.44;5114522;28;20255;-56
2023/07/30 11:01:13;;;;;;;3.00;2.10;;;;;;;34.81;29.51;97830.09;5115055;28;20265;-56
2023/07/30 11:03:39;;;;;;;2.53;2.30;;;;;;;34.89;29.64;97803.44;5114780;28;20309;-56
2023/07/30 11:06:04;;;;;;;4.90;2.47;;;;;;;35.13;28.25;97820.56;5114650;28;20282;-56
2023/07/30 11:08:40;;;;;;;2.67;2.47;;;;;;;35.32;27.43;97816.19;5114396;28;20605;-56
2023/07/30 11:11:09;;;;;;;3.40;2.65;;;;;;;35.28;26.55;97790.94;5114536;28;20222;-56
2023/07/30 11:13:40;;;;;;;2.30;2.17;;;;;;;35.44;27.01;97795.13;5114412;28;20167;-56
2023/07/30 11:16:07;;;;;;;4.93;2.63;;;;;;;35.66;26.88;97811.69;5114553;28;20186;-56
2023/07/30 11:18:36;;;;;;;4.50;2.45;;;;;;;35.77;27.33;97793.59;5114486;28;20227;-57
2023/07/30 11:21:05;;;;;;;4.30;2.50;;;;;;;36.04;26.52;97810.09;5114314;28;20179;-56
2023/07/30 11:23:31;;;;;;;3.83;2.20;;;;;;;36.10;26.40;97790.09;5114297;28;20217;-56
2023/07/30 11:25:56;;;;;;;4.50;3.00;;;;;;;36.15;26.53;97774.72;5114240;28;20236;-56
2023/07/30 11:28:38;;;;;;;2.55;2.35;;;;;;;36.49;26.63;97796.25;5113886;28;20202;-57
2023/07/30 11:31:19;;;;;;;6.25;2.58;;;;;;;36.57;26.08;97779.44;5114172;28;20293;-56